Hoopstad Airport


Codes: FAHP/
Name: Hoopstad Airport
City: Hoopstad
Country: South Africa
Elevation: 4131 ft.

Photos at Hoopstad Airport


   Photos courtesy of SpottingLog. You can add your own sightings and photos by signing up for a free trial today.



No photos found.

Weather at Hoopstad Airport


Time (UTC)DescriptionTempratureWindCloud coverageVisibilityPressureHumidity
15-Apr-2024 18:00Light Rain17°C9 mph, NE51%10000m1019hPa68%
15-Apr-2024 21:00Moderate Rain16°C9 mph, NE67%10000m1020hPa71%
16-Apr-2024 00:00Light Rain16°C7 mph, NE83%10000m1020hPa75%
16-Apr-2024 03:00Light Rain14°C9 mph, NE61%10000m1020hPa81%
16-Apr-2024 06:00Scattered Clouds15°C11 mph, NE37%10000m1022hPa72%
16-Apr-2024 09:00Clear Sky21°C13 mph, N7%10000m1020hPa47%
16-Apr-2024 12:00Clear Sky25°C9 mph, N5%10000m1016hPa33%
16-Apr-2024 15:00Broken Clouds24°C11 mph, NW78%10000m1014hPa35%
16-Apr-2024 18:00Moderate Rain16°C9 mph, E72%10000m1019hPa69%
16-Apr-2024 21:00Moderate Rain16°C4 mph, E100%10000m1021hPa77%
17-Apr-2024 00:00Light Rain15°C13 mph, E100%10000m1020hPa84%
17-Apr-2024 03:00Light Rain15°C9 mph, NE100%10000m1020hPa85%
17-Apr-2024 06:00Overcast Clouds15°C11 mph, NE100%10000m1022hPa81%
17-Apr-2024 09:00Overcast Clouds19°C11 mph, N99%10000m1021hPa60%
17-Apr-2024 12:00Overcast Clouds22°C13 mph, N96%10000m1018hPa49%
17-Apr-2024 15:00Light Rain21°C9 mph, NW90%10000m1019hPa50%
17-Apr-2024 18:00Light Rain20°C2 mph, N95%10000m1020hPa56%
17-Apr-2024 21:00Scattered Clouds18°C7 mph, NE43%10000m1020hPa60%
18-Apr-2024 00:00Few Clouds16°C7 mph, NE24%10000m1020hPa64%
18-Apr-2024 03:00Clear Sky15°C7 mph, NE0%10000m1021hPa74%
18-Apr-2024 06:00Clear Sky16°C4 mph, NE0%10000m1024hPa68%
18-Apr-2024 09:00Clear Sky22°C7 mph, N0%10000m1022hPa47%
18-Apr-2024 12:00Clear Sky26°C4 mph, W0%10000m1019hPa32%
18-Apr-2024 15:00Clear Sky25°C2 mph, S1%10000m1018hPa32%
18-Apr-2024 18:00Clear Sky21°C7 mph, SE2%10000m1020hPa40%
18-Apr-2024 21:00Broken Clouds19°C7 mph, E70%10000m1021hPa46%
19-Apr-2024 00:00Scattered Clouds18°C4 mph, NE36%10000m1021hPa51%
19-Apr-2024 03:00Clear Sky17°C4 mph, NE0%10000m1021hPa55%
19-Apr-2024 06:00Clear Sky18°C4 mph, NE0%10000m1022hPa52%
19-Apr-2024 09:00Scattered Clouds25°C4 mph, NE25%10000m1020hPa35%
19-Apr-2024 12:00Broken Clouds27°C2 mph, NW52%10000m1017hPa30%
19-Apr-2024 15:00Scattered Clouds27°C2 mph, SW36%10000m1017hPa29%
19-Apr-2024 18:00Few Clouds23°C2 mph, N20%10000m1018hPa38%
19-Apr-2024 21:00Clear Sky21°C4 mph, NE2%10000m1018hPa41%
20-Apr-2024 00:00Clear Sky20°C2 mph, NW1%10000m1018hPa46%
20-Apr-2024 03:00Clear Sky18°C4 mph, NW0%10000m1017hPa49%
20-Apr-2024 06:00Clear Sky20°C2 mph, N0%10000m1018hPa44%
20-Apr-2024 09:00Few Clouds27°C4 mph, NW18%10000m1017hPa30%
20-Apr-2024 12:00Few Clouds30°C4 mph, SW12%10000m1014hPa21%
20-Apr-2024 15:00Scattered Clouds29°C4 mph, SW44%10000m1014hPa23%